Observation data for Plains on 01/11/2018      Previous  Date  Next       Current Mesonet Observations  Soil Data  Daily Summary Page  Observations in Plain Language
KPPS 110600Z 24016KT 07/M01 A2965 RMK A01 T00721008  RH  057%=      5-min Rain = 0
KPPS 110605Z 23015G20KT 07/M01 A2965 RMK A01 T00721008  RH  057%=      5-min Rain = 0
KPPS 110610Z 23016G21KT 07/M01 A2965 RMK A01 T00721008  RH  057%=      5-min Rain = 0
KPPS 110615Z 23016G21KT 07/M01 A2965 RMK A01 T00721008  RH  057%=      5-min Rain = 0
KPPS 110620Z 24017G22KT 07/M01 A2964 RMK A01 T00731008  RH  057%=      5-min Rain = 0
KPPS 110625Z 24016G21KT 07/M01 A2964 RMK A01 T00721009  RH  057%=      5-min Rain = 0
KPPS 110630Z 24016KT 07/M01 A2964 RMK A01 T00721009  RH  057%=      5-min Rain = 0
KPPS 110635Z 23014G19KT 07/M01 A2965 RMK A01 T00711009  RH  057%=      5-min Rain = 0
KPPS 110640Z 23013KT 07/M01 A2965 RMK A01 T00711009  RH  058%=      5-min Rain = 0
KPPS 110645Z 22013KT 07/M01 A2965 RMK A01 T00701009  RH  058%=      5-min Rain = 0
KPPS 110650Z 22013G19KT 07/M01 A2965 RMK A01 T00701009  RH  058%=      5-min Rain = 0
KPPS 110655Z 23013G18KT 07/M01 A2965 RMK A01 T00701009  RH  058%=      5-min Rain = 0
KPPS 110700Z 24012KT 07/M01 A2965 RMK A01 T00681009  RH  058%=      5-min Rain = 0
KPPS 110705Z 24012KT 07/M01 A2965 RMK A01 T00681009  RH  059%=      5-min Rain = 0
KPPS 110710Z 24012KT 07/M01 A2965 RMK A01 T00691009  RH  058%=      5-min Rain = 0
KPPS 110715Z 24013KT 07/M01 A2965 RMK A01 T00681008  RH  059%=      5-min Rain = 0
KPPS 110720Z 24012KT 07/M01 A2965 RMK A01 T00691008  RH  059%=      5-min Rain = 0
KPPS 110725Z 24011G18KT 07/M01 A2965 RMK A01 T00681008  RH  059%=      5-min Rain = 0
KPPS 110730Z 24013KT 07/M01 A2966 RMK A01 T00711007  RH  058%=      5-min Rain = 0
KPPS 110735Z 24014G20KT 07/M01 A2966 RMK A01 T00721007  RH  058%=      5-min Rain = 0
KPPS 110740Z 24014G19KT 07/M01 A2966 RMK A01 T00741007  RH  057%=      5-min Rain = 0
KPPS 110745Z 24014KT 07/M01 A2966 RMK A01 T00731007  RH  057%=      5-min Rain = 0
KPPS 110750Z 24013KT 07/M01 A2966 RMK A01 T00721007  RH  058%=      5-min Rain = 0
KPPS 110755Z 25013KT 07/M01 A2966 RMK A01 T00711007  RH  058%=      5-min Rain = 0
KPPS 110800Z 25014KT 07/M01 A2967 RMK A01 T00711007  RH  058%=      5-min Rain = 0
KPPS 110805Z 25013KT 07/M01 A2967 RMK A01 T00721008  RH  058%=      5-min Rain = 0
KPPS 110810Z 24013KT 07/M01 A2967 RMK A01 T00721008  RH  057%=      5-min Rain = 0
KPPS 110815Z 24013KT 07/M01 A2968 RMK A01 T00721008  RH  057%=      5-min Rain = 0
KPPS 110820Z 24014KT 07/M01 A2968 RMK A01 T00741008  RH  057%=      5-min Rain = 0
KPPS 110825Z 25014G20KT 07/M01 A2968 RMK A01 T00731008  RH  057%=      5-min Rain = 0
KPPS 110830Z 25014KT 07/M01 A2969 RMK A01 T00721008  RH  057%=      5-min Rain = 0
KPPS 110835Z 26013KT 07/M01 A2969 RMK A01 T00701009  RH  058%=      5-min Rain = 0
KPPS 110840Z 26013KT 07/M01 A2969 RMK A01 T00691009  RH  058%=      5-min Rain = 0
KPPS 110845Z 26013KT 07/M01 A2969 RMK A01 T00681009  RH  059%=      5-min Rain = 0
KPPS 110850Z 26013G18KT 07/M01 A2969 RMK A01 T00681008  RH  059%=      5-min Rain = 0
KPPS 110855Z 26012KT 07/M01 A297 RMK A01 T00691008  RH  059%=      5-min Rain = 0
KPPS 110900Z 27010KT 07/M01 A297 RMK A01 T00681008  RH  059%=      5-min Rain = 0
KPPS 110905Z 27009KT 07/M01 A297 RMK A01 T00671009  RH  059%=      5-min Rain = 0
KPPS 110910Z 27009KT 07/M01 A297 RMK A01 T00651009  RH  060%=      5-min Rain = 0
KPPS 110915Z 27008KT 07/M01 A297 RMK A01 T00661008  RH  060%=      5-min Rain = 0
KPPS 110920Z 27008KT 07/M01 A297 RMK A01 T00661008  RH  059%=      5-min Rain = 0
KPPS 110925Z 27009KT 07/M01 A2971 RMK A01 T00671008  RH  059%=      5-min Rain = 0
KPPS 110930Z 27011KT 07/M01 A2971 RMK A01 T00691008  RH  058%=      5-min Rain = 0
KPPS 110935Z 26011KT 07/M01 A2971 RMK A01 T00691008  RH  058%=      5-min Rain = 0
KPPS 110940Z 26012G17KT 07/M01 A2971 RMK A01 T00711008  RH  058%=      5-min Rain = 0
KPPS 110945Z 27012KT 07/M01 A2972 RMK A01 T00721008  RH  057%=      5-min Rain = 0
KPPS 110950Z 27012KT 07/M01 A2972 RMK A01 T00721008  RH  058%=      5-min Rain = 0
KPPS 110955Z 27012KT 07/M01 A2972 RMK A01 T00721007  RH  058%=      5-min Rain = 0
KPPS 111000Z 28012KT 07/M01 A2972 RMK A01 T00721006  RH  058%=      5-min Rain = 0
KPPS 111005Z 28012KT 07/M01 A2973 RMK A01 T00731005  RH  058%=      5-min Rain = 0
KPPS 111010Z 29011KT 07/M00 A2973 RMK A01 T00731004  RH  059%=      5-min Rain = 0
KPPS 111015Z 29011KT 08/M00 A2973 RMK A01 T00761002  RH  059%=      5-min Rain = 0
KPPS 111020Z 29011KT 08/00 A2974 RMK A01 T00780001  RH  059%=      5-min Rain = 0
KPPS 111025Z 31012KT 09/01 A2974 RMK A01 T00860005  RH  057%=      5-min Rain = 0
KPPS 111030Z 32015G20KT 09/01 A2975 RMK A01 T00910006  RH  056%=      5-min Rain = 0
KPPS 111035Z 34020G32KT 09/01 A2976 RMK A01 T00930008  RH  056%=      5-min Rain = 0
KPPS 111040Z 36026G35KT 09/02 A2977 RMK A01 T00910015  RH  060%=      5-min Rain = 0
KPPS 111045Z 35022G34KT 09/02 A2977 RMK A01 T00880016  RH  062%=      5-min Rain = 0
KPPS 111050Z 36021G29KT 09/01 A2978 RMK A01 T00870013  RH  061%=      5-min Rain = 0
KPPS 111055Z 01021G27KT 09/01 A2978 RMK A01 T00850007  RH  059%=      5-min Rain = 0
KPPS 111100Z 01019G29KT 08/01 A2979 RMK A01 T00820005  RH  059%=      5-min Rain = 0
KPPS 111105Z 01017G22KT 08/00 A2979 RMK A01 T00810004  RH  059%=      5-min Rain = 0
KPPS 111110Z 01018G24KT 08/01 A298 RMK A01 T00800005  RH  060%=      5-min Rain = 0
KPPS 111115Z 00017G22KT 08/01 A298 RMK A01 T00790006  RH  061%=      5-min Rain = 0
KPPS 111120Z 00014KT 08/01 A2981 RMK A01 T00770006  RH  062%=      5-min Rain = 0
KPPS 111125Z 00012G17KT 08/01 A2981 RMK A01 T00760007  RH  062%=      5-min Rain = 0
KPPS 111130Z 35015G25KT 08/01 A2981 RMK A01 T00770010  RH  063%=      5-min Rain = 0
KPPS 111135Z 35020G27KT 08/01 A2982 RMK A01 T00770008  RH  062%=      5-min Rain = 0
KPPS 111140Z 35021G28KT 08/01 A2982 RMK A01 T00750007  RH  063%=      5-min Rain = 0
KPPS 111145Z 35022G28KT 07/00 A2982 RMK A01 T00730002  RH  062%=      5-min Rain = 0
KPPS 111150Z 35021G26KT 07/M00 A2982 RMK A01 T00721002  RH  060%=      5-min Rain = 0
KPPS 111155Z 35019G24KT 07/M00 A2983 RMK A01 T00701003  RH  060%=      5-min Rain = 0
KPPS 111200Z 35021G28KT 07/M00 A2983 RMK A01 T00701004  RH  060%=      5-min Rain = 0
KPPS 111205Z 36021G27KT 07/M00 A2983 RMK A01 T00701004  RH  060%=      5-min Rain = 0
KPPS 111210Z 36023G29KT 07/M01 A2984 RMK A01 T00701007  RH  059%=      5-min Rain = 0
KPPS 111215Z 36022G29KT 07/M01 A2984 RMK A01 T00691008  RH  059%=      5-min Rain = 0
KPPS 111220Z 36020G26KT 07/M01 A2984 RMK A01 T00681007  RH  059%=      5-min Rain = 0
KPPS 111225Z 34020G28KT 07/M01 A2985 RMK A01 T00671005  RH  061%=      5-min Rain = 0
KPPS 111230Z 34024G33KT 06/M01 A2985 RMK A01 T00631005  RH  062%=      5-min Rain = 0
KPPS 111235Z 35022G31KT 06/M01 A2986 RMK A01 T00621008  RH  061%=      5-min Rain = 0
KPPS 111240Z 35022G28KT 06/M01 A2986 RMK A01 T00611009  RH  061%=      5-min Rain = 0
KPPS 111245Z 35021G30KT 06/M01 A2987 RMK A01 T00601008  RH  062%=      5-min Rain = 0
KPPS 111250Z 35022G29KT 06/M01 A2987 RMK A01 T00581010  RH  062%=      5-min Rain = 0
KPPS 111255Z 35026G35KT 06/M01 A2987 RMK A01 T00551010  RH  063%=      5-min Rain = 0
KPPS 111300Z 35023G29KT 05/M01 A2988 RMK A01 T00541010  RH  064%=      5-min Rain = 0
KPPS 111305Z 35024G31KT 05/M01 A2988 RMK A01 T00531012  RH  064%=      5-min Rain = 0
KPPS 111310Z 35025G32KT 05/M01 A2989 RMK A01 T00521013  RH  063%=      5-min Rain = 0
KPPS 111315Z 35021G28KT 05/M01 A2989 RMK A01 T00511014  RH  063%=      5-min Rain = 0
KPPS 111320Z 35023G33KT 05/M02 A299 RMK A01 T00511016  RH  063%=      5-min Rain = 0
KPPS 111325Z 35027G34KT 05/M02 A299 RMK A01 T00501019  RH  062%=      5-min Rain = 0
KPPS 111330Z 35024G31KT 04/M01 A2991 RMK A01 T00421012  RH  069%=      5-min Rain = 0
KPPS 111335Z 35023G32KT 04/M01 A2991 RMK A01 T00381012  RH  071%=      5-min Rain = 0
KPPS 111340Z 36022G31KT 04/M02 A2991 RMK A01 T00401019  RH  066%=      5-min Rain = 0
KPPS 111345Z 36021KT 04/M03 A2991 RMK A01 T00411025  RH  062%=      5-min Rain = 0
KPPS 111350Z 35021G27KT 04/M03 A2992 RMK A01 T00431029  RH  060%=      5-min Rain = 0
KPPS 111355Z 35019G26KT 04/M03 A2992 RMK A01 T00431032  RH  058%=      5-min Rain = 0
KPPS 111400Z 35019G25KT 04/M04 A2993 RMK A01 T00441035  RH  057%=      5-min Rain = 0
KPPS 111405Z 35019G26KT 04/M04 A2994 RMK A01 T00431037  RH  056%=      5-min Rain = 0
KPPS 111410Z 35020G27KT 04/M04 A2994 RMK A01 T00431039  RH  055%=      5-min Rain = 0
KPPS 111415Z 35021G27KT 04/M04 A2995 RMK A01 T00431042  RH  054%=      5-min Rain = 0
KPPS 111420Z 36018G23KT 04/M04 A2996 RMK A01 T00431044  RH  053%=      5-min Rain = 0
KPPS 111425Z 36018G23KT 04/M05 A2996 RMK A01 T00431046  RH  053%=      5-min Rain = 0
KPPS 111430Z 36016G21KT 04/M05 A2997 RMK A01 T00421047  RH  052%=      5-min Rain = 0
KPPS 111435Z 36018G23KT 04/M05 A2998 RMK A01 T00431048  RH  052%=      5-min Rain = 0
KPPS 111440Z 35017G22KT 04/M05 A2998 RMK A01 T00431048  RH  052%=      5-min Rain = 0
KPPS 111445Z 35018G26KT 04/M05 A2999 RMK A01 T00431049  RH  051%=      5-min Rain = 0
KPPS 111450Z 35021G27KT 04/M05 A30 RMK A01 T00421050  RH  051%=      5-min Rain = 0
KPPS 111455Z 35017G23KT 04/M05 A3001 RMK A01 T00421049  RH  052%=      5-min Rain = 0
KPPS 111500Z 35016G21KT 04/M05 A3001 RMK A01 T00431048  RH  052%=      5-min Rain = 0
KPPS 111505Z 34018G23KT 04/M05 A3002 RMK A01 T00441046  RH  052%=      5-min Rain = 0
KPPS 111510Z 34017G25KT 04/M05 A3002 RMK A01 T00441045  RH  053%=      5-min Rain = 0
KPPS 111515Z 33021G26KT 04/M05 A3002 RMK A01 T00411050  RH  052%=      5-min Rain = 0
KPPS 111520Z 33021G27KT 04/M06 A3003 RMK A01 T00361057  RH  051%=      5-min Rain = 0
KPPS 111525Z 34022G28KT 03/M06 A3004 RMK A01 T00331059  RH  051%=      5-min Rain = 0
KPPS 111530Z 35025G33KT 03/M07 A3005 RMK A01 T00301068  RH  049%=      5-min Rain = 0
KPPS 111535Z 35023G28KT 03/M08 A3006 RMK A01 T00251075  RH  048%=      5-min Rain = 0
KPPS 111540Z 36021G27KT 02/M08 A3006 RMK A01 T00231077  RH  048%=      5-min Rain = 0
KPPS 111545Z 35020G28KT 03/M08 A3006 RMK A01 T00281075  RH  047%=      5-min Rain = 0
KPPS 111550Z 36024G31KT 03/M08 A3007 RMK A01 T00321077  RH  045%=      5-min Rain = 0
KPPS 111555Z 35022G27KT 03/M08 A3008 RMK A01 T00321078  RH  044%=      5-min Rain = 0
KPPS 111600Z 35021G27KT 03/M08 A3009 RMK A01 T00321079  RH  044%=      5-min Rain = 0
KPPS 111605Z 35022G28KT 03/M08 A3009 RMK A01 T00331078  RH  044%=      5-min Rain = 0
KPPS 111610Z 35021G27KT 04/M08 A301 RMK A01 T00371078  RH  043%=      5-min Rain = 0
KPPS 111615Z 35022G27KT 04/M08 A301 RMK A01 T00371080  RH  042%=      5-min Rain = 0
KPPS 111620Z 35021G26KT 03/M08 A301 RMK A01 T00331081  RH  043%=      5-min Rain = 0
KPPS 111625Z 35021G26KT 04/M08 A3011 RMK A01 T00361080  RH  042%=      5-min Rain = 0
KPPS 111630Z 35021G27KT 04/M08 A3011 RMK A01 T00421079  RH  041%=      5-min Rain = 0
KPPS 111635Z 34021G29KT 04/M08 A3012 RMK A01 T00441080  RH  040%=      5-min Rain = 0
KPPS 111640Z 35024G29KT 04/M08 A3012 RMK A01 T00441083  RH  039%=      5-min Rain = 0
KPPS 111645Z 35021G27KT 05/M08 A3012 RMK A01 T00471084  RH  038%=      5-min Rain = 0
KPPS 111650Z 35024G31KT 05/M09 A3012 RMK A01 T00521085  RH  037%=      5-min Rain = 0
KPPS 111655Z 35023G29KT 05/M09 A3013 RMK A01 T00541086  RH  036%=      5-min Rain = 0
KPPS 111700Z 35022G29KT 06/M09 A3013 RMK A01 T00561086  RH  035%=      5-min Rain = 0
KPPS 111705Z 36022G29KT 06/M09 A3014 RMK A01 T00601087  RH  034%=      5-min Rain = 0
KPPS 111710Z 35024G30KT 06/M09 A3014 RMK A01 T00611089  RH  033%=      5-min Rain = 0
KPPS 111715Z 35023G31KT 06/M09 A3014 RMK A01 T00561092  RH  034%=      5-min Rain = 0
KPPS 111720Z 35023G28KT 06/M09 A3014 RMK A01 T00611091  RH  033%=      5-min Rain = 0
KPPS 111725Z 35024G30KT 06/M09 A3015 RMK A01 T00581094  RH  032%=      5-min Rain = 0
KPPS 111730Z 35022G30KT 06/M10 A3015 RMK A01 T00551095  RH  033%=      5-min Rain = 0
KPPS 111735Z 35023G31KT 06/M09 A3016 RMK A01 T00611092  RH  032%=      5-min Rain = 0
KPPS 111740Z 36024G29KT 06/M10 A3016 RMK A01 T00621096  RH  031%=      5-min Rain = 0
KPPS 111745Z 35024G30KT 06/M10 A3016 RMK A01 T00641095  RH  031%=      5-min Rain = 0
KPPS 111750Z 35022G28KT 07/M10 A3016 RMK A01 T00671095  RH  030%=      5-min Rain = 0
KPPS 111755Z 35023G29KT 07/M10 A3016 RMK A01 T00701098  RH  029%=      5-min Rain = 0
KPPS 111800Z 36023G28KT 07/M10 A3016 RMK A01 T00681101  RH  029%=      5-min Rain = 0
KPPS 111805Z 35020G27KT 07/M10 A3016 RMK A01 T00701099  RH  029%=      5-min Rain = 0
KPPS 111810Z 35021G29KT 07/M10 A3016 RMK A01 T00741101  RH  028%=      5-min Rain = 0
KPPS 111815Z 35020G26KT 08/M10 A3016 RMK A01 T00761099  RH  028%=      5-min Rain = 0
KPPS 111820Z 35021G28KT 08/M10 A3017 RMK A01 T00751102  RH  027%=      5-min Rain = 0
KPPS 111825Z 35022G29KT 08/M10 A3017 RMK A01 T00781104  RH  026%=      5-min Rain = 0
KPPS 111830Z 36022G28KT 07/M10 A3017 RMK A01 T00711104  RH  027%=      5-min Rain = 0
KPPS 111835Z 35020G28KT 08/M10 A3017 RMK A01 T00751102  RH  027%=      5-min Rain = 0
KPPS 111840Z 35022G29KT 07/M11 A3017 RMK A01 T00711105  RH  027%=      5-min Rain = 0
KPPS 111845Z 00019G24KT 07/M11 A3017 RMK A01 T00661106  RH  028%=      5-min Rain = 0
KPPS 111850Z 35021G30KT 08/M10 A3017 RMK A01 T00751103  RH  027%=      5-min Rain = 0
KPPS 111855Z 00021G27KT 08/M11 A3016 RMK A01 T00771105  RH  026%=      5-min Rain = 0
KPPS 111900Z 35019G26KT 08/M10 A3016 RMK A01 T00761102  RH  027%=      5-min Rain = 0
KPPS 111905Z 00021G26KT 08/M10 A3016 RMK A01 T00821101  RH  026%=      5-min Rain = 0
KPPS 111910Z 00020G27KT 08/M10 A3016 RMK A01 T00841101  RH  026%=      5-min Rain = 0
KPPS 111915Z 36021G28KT 09/M10 A3016 RMK A01 T00851101  RH  026%=      5-min Rain = 0
KPPS 111920Z 35021G28KT 08/M10 A3016 RMK A01 T00801103  RH  026%=      5-min Rain = 0
KPPS 111925Z 35020G27KT 08/M10 A3016 RMK A01 T00811101  RH  026%=      5-min Rain = 0
KPPS 111930Z 00019G26KT 09/M10 A3016 RMK A01 T00861102  RH  025%=      5-min Rain = 0
KPPS 111935Z 35021G27KT 09/M10 A3016 RMK A01 T00911101  RH  025%=      5-min Rain = 0
KPPS 111940Z 36021G27KT 09/M10 A3016 RMK A01 T00911102  RH  024%=      5-min Rain = 0
KPPS 111945Z 00020G28KT 09/M10 A3017 RMK A01 T00851104  RH  025%=      5-min Rain = 0
KPPS 111950Z 00021G27KT 09/M10 A3017 RMK A01 T00891102  RH  025%=      5-min Rain = 0
KPPS 111955Z 36020G26KT 09/M10 A3016 RMK A01 T00931104  RH  024%=      5-min Rain = 0
KPPS 112000Z 35018G26KT 09/M10 A3016 RMK A01 T00941102  RH  024%=      5-min Rain = 0
KPPS 112005Z 35021KT 09/M10 A3016 RMK A01 T00901104  RH  024%=      5-min Rain = 0
KPPS 112010Z 35019G24KT 09/M11 A3016 RMK A01 T00921105  RH  024%=      5-min Rain = 0
KPPS 112015Z 35016G21KT 10/M10 A3017 RMK A01 T00991104  RH  023%=      5-min Rain = 0
KPPS 112020Z 35015G20KT 10/M10 A3017 RMK A01 T00951104  RH  023%=      5-min Rain = 0
KPPS 112025Z 35018G24KT 09/M11 A3017 RMK A01 T00911109  RH  023%=      5-min Rain = 0
KPPS 112030Z 35016G23KT 09/M11 A3017 RMK A01 T00871111  RH  023%=      5-min Rain = 0
KPPS 112035Z 35015G23KT 09/M11 A3018 RMK A01 T00931108  RH  023%=      5-min Rain = 0
KPPS 112040Z 35020G26KT 09/M11 A3018 RMK A01 T00931112  RH  022%=      5-min Rain = 0
KPPS 112045Z 35017G24KT 09/M11 A3018 RMK A01 T00921111  RH  022%=      5-min Rain = 0
KPPS 112050Z 36018G24KT 10/M11 A3018 RMK A01 T00951112  RH  022%=      5-min Rain = 0
KPPS 112055Z 35017G24KT 10/M11 A3018 RMK A01 T00951110  RH  022%=      5-min Rain = 0
KPPS 112100Z 00018G24KT 10/M11 A3019 RMK A01 T01011111  RH  021%=      5-min Rain = 0
KPPS 112105Z 36017G25KT 09/M11 A3019 RMK A01 T00941111  RH  022%=      5-min Rain = 0
KPPS 112110Z 00016G24KT 09/M11 A3019 RMK A01 T00901109  RH  023%=      5-min Rain = 0
KPPS 112115Z 36018G25KT 09/M11 A3018 RMK A01 T00941108  RH  023%=      5-min Rain = 0
KPPS 112120Z 36018G23KT 10/M11 A3019 RMK A01 T00961110  RH  022%=      5-min Rain = 0
KPPS 112125Z 36016G22KT 10/M11 A3019 RMK A01 T00951110  RH  022%=      5-min Rain = 0
KPPS 112130Z 36016G21KT 10/M11 A3019 RMK A01 T00961109  RH  022%=      5-min Rain = 0
KPPS 112135Z 00013G21KT 10/M11 A3019 RMK A01 T00961109  RH  022%=      5-min Rain = 0
KPPS 112140Z 35015G20KT 10/M11 A3019 RMK A01 T00971108  RH  022%=      5-min Rain = 0
KPPS 112145Z 35015KT 10/M11 A302 RMK A01 T00981109  RH  022%=      5-min Rain = 0
KPPS 112150Z 34015G20KT 10/M11 A302 RMK A01 T00991110  RH  022%=      5-min Rain = 0
KPPS 112155Z 35015G20KT 10/M11 A302 RMK A01 T01001109  RH  022%=      5-min Rain = 0
KPPS 112200Z 36014G19KT 10/M11 A302 RMK A01 T00981110  RH  022%=      5-min Rain = 0
KPPS 112205Z 35014KT 10/M11 A3021 RMK A01 T00971110  RH  022%=      5-min Rain = 0
KPPS 112210Z 34014G20KT 10/M11 A3021 RMK A01 T00971111  RH  022%=      5-min Rain = 0
KPPS 112215Z 35015G20KT 10/M11 A3021 RMK A01 T00971111  RH  022%=      5-min Rain = 0
KPPS 112220Z 35013G18KT 10/M11 A3021 RMK A01 T00971112  RH  022%=      5-min Rain = 0
KPPS 112225Z 35016KT 10/M11 A3021 RMK A01 T00961111  RH  022%=      5-min Rain = 0
KPPS 112230Z 35012G18KT 09/M11 A3021 RMK A01 T00921112  RH  022%=      5-min Rain = 0
KPPS 112235Z 35012KT 09/M11 A3021 RMK A01 T00851112  RH  023%=      5-min Rain = 0
KPPS 112240Z 00010KT 09/M11 A3021 RMK A01 T00851111  RH  023%=      5-min Rain = 0
KPPS 112245Z 00012KT 09/M11 A3021 RMK A01 T00871110  RH  023%=      5-min Rain = 0
KPPS 112250Z 36014KT 09/M11 A3021 RMK A01 T00891110  RH  023%=      5-min Rain = 0
KPPS 112255Z 35013KT 09/M11 A3021 RMK A01 T00881110  RH  023%=      5-min Rain = 0
KPPS 112300Z 01011G16KT 09/M11 A3021 RMK A01 T00871112  RH  023%=      5-min Rain = 0
KPPS 112305Z 01010KT 09/M11 A3022 RMK A01 T00851112  RH  023%=      5-min Rain = 0
KPPS 112310Z 36011KT 09/M11 A3022 RMK A01 T00861111  RH  023%=      5-min Rain = 0
KPPS 112315Z 36011KT 09/M11 A3022 RMK A01 T00861113  RH  023%=      5-min Rain = 0
KPPS 112320Z 01008KT 08/M11 A3022 RMK A01 T00811113  RH  024%=      5-min Rain = 0
KPPS 112325Z 00010KT 08/M11 A3022 RMK A01 T00831112  RH  024%=      5-min Rain = 0
KPPS 112330Z 01009KT 08/M11 A3022 RMK A01 T00841112  RH  024%=      5-min Rain = 0
KPPS 112335Z 01007KT 08/M11 A3022 RMK A01 T00831112  RH  024%=      5-min Rain = 0
KPPS 112340Z 01006KT 08/M11 A3022 RMK A01 T00811113  RH  024%=      5-min Rain = 0
KPPS 112345Z 01006KT 08/M11 A3023 RMK A01 T00791113  RH  024%=      5-min Rain = 0
KPPS 112350Z 01006KT 08/M11 A3023 RMK A01 T00751113  RH  025%=      5-min Rain = 0
KPPS 112355Z 01006KT 07/M11 A3023 RMK A01 T00721113  RH  025%=      5-min Rain = 0
KPPS 120000Z 02006KT 07/M11 A3023 RMK A01 T00711113  RH  026%=      5-min Rain = 0
KPPS 120005Z 02006KT 07/M11 A3023 RMK A01 T00681113  RH  026%=      5-min Rain = 0
KPPS 120010Z 02005KT 07/M11 A3023 RMK A01 T00651114  RH  026%=      5-min Rain = 0
KPPS 120015Z 02005KT 06/M11 A3024 RMK A01 T00621114  RH  027%=      5-min Rain = 0
KPPS 120020Z 02005KT 06/M11 A3024 RMK A01 T00591114  RH  027%=      5-min Rain = 0
KPPS 120025Z 02005KT 06/M12 A3024 RMK A01 T00581115  RH  028%=      5-min Rain = 0
KPPS 120030Z 03004KT 06/M11 A3024 RMK A01 T00581114  RH  028%=      5-min Rain = 0
KPPS 120035Z 03004KT 06/M11 A3024 RMK A01 T00561114  RH  028%=      5-min Rain = 0
KPPS 120040Z 03004KT 05/M12 A3024 RMK A01 T00541115  RH  028%=      5-min Rain = 0
KPPS 120045Z 04005KT 05/M12 A3024 RMK A01 T00501115  RH  029%=      5-min Rain = 0
KPPS 120050Z 03005KT 05/M12 A3024 RMK A01 T00491116  RH  029%=      5-min Rain = 0
KPPS 120055Z 03006KT 05/M11 A3024 RMK A01 T00491114  RH  029%=      5-min Rain = 0
KPPS 120100Z 03006KT 05/M11 A3025 RMK A01 T00511114  RH  029%=      5-min Rain = 0
KPPS 120105Z 03006KT 05/M12 A3024 RMK A01 T00501115  RH  029%=      5-min Rain = 0
KPPS 120110Z 03006KT 05/M12 A3025 RMK A01 T00471115  RH  030%=      5-min Rain = 0
KPPS 120115Z 04006KT 05/M11 A3025 RMK A01 T00481114  RH  030%=      5-min Rain = 0
KPPS 120120Z 04006KT 05/M11 A3025 RMK A01 T00471114  RH  030%=      5-min Rain = 0
KPPS 120125Z 03005KT 05/M11 A3025 RMK A01 T00451114  RH  030%=      5-min Rain = 0
KPPS 120130Z 03005KT 04/M12 A3025 RMK A01 T00441115  RH  030%=      5-min Rain = 0
KPPS 120135Z 03005KT 04/M12 A3025 RMK A01 T00421115  RH  031%=      5-min Rain = 0
KPPS 120140Z 04005KT 04/M12 A3025 RMK A01 T00401115  RH  031%=      5-min Rain = 0
KPPS 120145Z 04004KT 04/M12 A3025 RMK A01 T00391115  RH  031%=      5-min Rain = 0
KPPS 120150Z 04004KT 04/M12 A3026 RMK A01 T00381115  RH  031%=      5-min Rain = 0
KPPS 120155Z 05005KT 04/M12 A3026 RMK A01 T00361116  RH  032%=      5-min Rain = 0
KPPS 120200Z 05004KT 03/M12 A3026 RMK A01 T00331116  RH  032%=      5-min Rain = 0
KPPS 120205Z 05005KT 03/M12 A3026 RMK A01 T00331116  RH  032%=      5-min Rain = 0
KPPS 120210Z 05004KT 03/M12 A3026 RMK A01 T00321117  RH  032%=      5-min Rain = 0
KPPS 120215Z 05004KT 03/M12 A3026 RMK A01 T00261119  RH  033%=      5-min Rain = 0
KPPS 120220Z 06003KT 02/M12 A3026 RMK A01 T00241118  RH  034%=      5-min Rain = 0
KPPS 120225Z 05003KT 02/M12 A3026 RMK A01 T00211118  RH  035%=      5-min Rain = 0
KPPS 120230Z 05003KT 02/M12 A3026 RMK A01 T00181118  RH  035%=      5-min Rain = 0
KPPS 120235Z 05003KT 01/M12 A3025 RMK A01 T00141120  RH  036%=      5-min Rain = 0
KPPS 120240Z 06003KT 01/M12 A3025 RMK A01 T00121120  RH  036%=      5-min Rain = 0
KPPS 120245Z 05003KT 01/M12 A3025 RMK A01 T00111120  RH  037%=      5-min Rain = 0
KPPS 120250Z 05004KT 02/M12 A3025 RMK A01 T00161118  RH  036%=      5-min Rain = 0
KPPS 120255Z 04004KT 02/M12 A3025 RMK A01 T00161119  RH  036%=      5-min Rain = 0
KPPS 120300Z 05004KT 02/M12 A3026 RMK A01 T00161118  RH  036%=      5-min Rain = 0
KPPS 120305Z 05004KT 02/M12 A3026 RMK A01 T00151118  RH  036%=      5-min Rain = 0
KPPS 120310Z 05004KT 02/M12 A3026 RMK A01 T00171117  RH  036%=      5-min Rain = 0
KPPS 120315Z 05005KT 02/M12 A3026 RMK A01 T00191117  RH  036%=      5-min Rain = 0
KPPS 120320Z 05005KT 02/M12 A3026 RMK A01 T00201117  RH  035%=      5-min Rain = 0
KPPS 120325Z 06005KT 02/M12 A3026 RMK A01 T00171119  RH  035%=      5-min Rain = 0
KPPS 120330Z 07005KT 01/M12 A3026 RMK A01 T00141118  RH  037%=      5-min Rain = 0
KPPS 120335Z 06005KT 02/M12 A3026 RMK A01 T00161117  RH  036%=      5-min Rain = 0
KPPS 120340Z 06005KT 02/M12 A3026 RMK A01 T00161117  RH  036%=      5-min Rain = 0
KPPS 120345Z 07004KT 02/M12 A3026 RMK A01 T00161118  RH  036%=      5-min Rain = 0
KPPS 120350Z 07005KT 01/M12 A3026 RMK A01 T00141119  RH  036%=      5-min Rain = 0
KPPS 120355Z 07004KT 01/M12 A3026 RMK A01 T00131119  RH  037%=      5-min Rain = 0
KPPS 120400Z 07005KT 01/M12 A3026 RMK A01 T00111119  RH  037%=      5-min Rain = 0
KPPS 120405Z 07005KT 01/M12 A3026 RMK A01 T00131117  RH  037%=      5-min Rain = 0
KPPS 120410Z 07004KT 01/M12 A3026 RMK A01 T00131118  RH  037%=      5-min Rain = 0
KPPS 120415Z 07005KT 01/M12 A3026 RMK A01 T00091118  RH  038%=      5-min Rain = 0
KPPS 120420Z 07004KT 01/M12 A3026 RMK A01 T00091118  RH  038%=      5-min Rain = 0
KPPS 120425Z 07004KT 01/M12 A3026 RMK A01 T00091118  RH  038%=      5-min Rain = 0
KPPS 120430Z 07003KT 01/M12 A3027 RMK A01 T00071120  RH  038%=      5-min Rain = 0
KPPS 120435Z 07003KT 00/M12 A3027 RMK A01 T00021122  RH  039%=      5-min Rain = 0
KPPS 120440Z 07003KT M00/M12 A3027 RMK A01 T10041122  RH  040%=      5-min Rain = 0
KPPS 120445Z 07003KT M01/M12 A3027 RMK A01 T10071121  RH  041%=      5-min Rain = 0
KPPS 120450Z 07003KT M01/M12 A3027 RMK A01 T10071120  RH  042%=      5-min Rain = 0
KPPS 120455Z 07002KT M00/M12 A3027 RMK A01 T10041119  RH  041%=      5-min Rain = 0
KPPS 120500Z 07002KT M01/M12 A3027 RMK A01 T10051120  RH  041%=      5-min Rain = 0
KPPS 120505Z 07002KT M01/M12 A3027 RMK A01 T10071121  RH  042%=      5-min Rain = 0
KPPS 120510Z 07002KT M01/M12 A3027 RMK A01 T10101121  RH  042%=      5-min Rain = 0
KPPS 120515Z 07001KT M01/M12 A3027 RMK A01 T10101120  RH  043%=      5-min Rain = 0
KPPS 120520Z 07001KT M01/M12 A3027 RMK A01 T10111121  RH  042%=      5-min Rain = 0
KPPS 120525Z 07000KT M01/M12 A3027 RMK A01 T10141123  RH  043%=      5-min Rain = 0
KPPS 120530Z 07000KT M02/M12 A3027 RMK A01 T10161123  RH  044%=      5-min Rain = 0
KPPS 120535Z 07001KT M01/M12 A3027 RMK A01 T10131120  RH  044%=      5-min Rain = 0
KPPS 120540Z 07000KT M01/M12 A3027 RMK A01 T10121122  RH  043%=      5-min Rain = 0
KPPS 120545Z 00000KT M02/M13 A3027 RMK A01 T10201127  RH  044%=      5-min Rain = 0
KPPS 120550Z 07000KT M02/M12 A3027 RMK A01 T10201122  RH  045%=      5-min Rain = 0
KPPS 120555Z 07000KT M01/M12 A3027 RMK A01 T10131119  RH  044%=      5-min Rain = 0

Page generated in 0.0126 seconds.